createdAt,value
2022-12-18T00:00:59.855Z,-1.75
2022-12-18T00:01:44.956Z,-1.82
2022-12-18T00:02:24.894Z,-1.71
2022-12-18T00:03:11.947Z,-1.67
2022-12-18T00:04:07.953Z,-1.72
2022-12-18T00:05:01.847Z,-1.71
2022-12-18T00:06:05.140Z,-1.65
2022-12-18T00:06:58.839Z,-1.74
2022-12-18T00:07:52.836Z,-1.72
2022-12-18T00:08:33.886Z,-1.77
2022-12-18T00:09:13.919Z,-1.82
2022-12-18T00:09:54.870Z,-1.97
2022-12-18T00:10:38.929Z,-1.98
2022-12-18T00:11:25.861Z,-1.99
2022-12-18T00:12:56.846Z,-1.84
2022-12-18T00:13:44.895Z,-1.94
2022-12-18T00:14:38.863Z,-1.93
2022-12-18T00:15:35.828Z,-1.82
2022-12-18T00:16:35.922Z,-1.79
2022-12-18T00:17:29.875Z,-1.92
2022-12-18T00:18:24.884Z,-1.87
2022-12-18T00:19:05.850Z,-2.03
2022-12-18T00:19:45.932Z,-1.94
2022-12-18T00:20:32.878Z,-1.98
2022-12-18T00:21:15.991Z,-2.09
2022-12-18T00:21:55.823Z,-1.90
2022-12-18T00:22:35.909Z,-1.79
2022-12-18T00:23:16.832Z,-1.93
2022-12-18T00:23:58.912Z,-1.99
2022-12-18T00:24:39.904Z,-1.96
2022-12-18T00:25:19.891Z,-1.93
2022-12-18T00:26:00.829Z,-1.95
2022-12-18T00:26:42.923Z,-2.00
2022-12-18T00:27:23.830Z,-2.06
2022-12-18T00:28:03.951Z,-2.03
2022-12-18T00:28:46.839Z,-2.03
2022-12-18T00:29:26.966Z,-2.01
2022-12-18T00:30:06.882Z,-2.01
2022-12-18T00:30:47.993Z,-2.08
2022-12-18T00:31:34.006Z,-2.00
2022-12-18T00:32:15.316Z,-1.93
2022-12-18T00:32:55.841Z,-2.16
2022-12-18T00:33:36.052Z,-2.15
2022-12-18T00:34:20.804Z,-2.18
2022-12-18T00:35:00.854Z,-2.07
2022-12-18T00:35:40.840Z,-2.14
2022-12-18T00:36:28.880Z,-2.15
2022-12-18T00:37:09.842Z,-2.15
2022-12-18T00:37:49.914Z,-2.15
2022-12-18T00:38:29.795Z,-2.21
2022-12-18T00:39:12.132Z,-2.16
2022-12-18T00:39:51.804Z,-2.19
2022-12-18T00:40:31.845Z,-2.10
2022-12-18T00:41:12.822Z,-2.09
2022-12-18T00:42:11.681Z,-2.31
2022-12-18T00:43:04.813Z,-2.23
2022-12-18T00:43:45.876Z,-2.28
2022-12-18T00:44:26.816Z,-2.32
2022-12-18T00:45:12.350Z,-2.32
2022-12-18T00:45:53.867Z,-2.20
2022-12-18T00:46:33.832Z,-2.12
2022-12-18T00:47:07.879Z,-2.12
2022-12-18T00:47:54.792Z,-2.06
2022-12-18T00:48:28.881Z,-1.95
2022-12-18T00:49:16.850Z,-2.00
2022-12-18T00:49:50.903Z,-2.11
2022-12-18T00:50:37.795Z,-2.11
2022-12-18T00:51:12.132Z,-2.23
2022-12-18T00:51:58.848Z,-2.09
2022-12-18T00:52:32.833Z,-2.05
2022-12-18T00:53:19.787Z,-2.16
2022-12-18T00:53:53.860Z,-2.35
2022-12-18T00:54:40.800Z,-2.26
2022-12-18T00:55:14.874Z,-2.33
2022-12-18T00:56:01.815Z,-2.23
2022-12-18T00:56:37.376Z,-2.34
2022-12-18T00:57:18.832Z,-2.33
2022-12-18T00:57:59.887Z,-2.39
2022-12-18T00:58:42.801Z,-2.51
2022-12-18T00:59:25.859Z,-2.50
2022-12-18T01:00:05.805Z,-2.50
2022-12-18T01:00:45.941Z,-2.54
2022-12-18T01:01:26.873Z,-2.47
2022-12-18T01:02:06.948Z,-2.53
2022-12-18T01:02:47.978Z,-2.29
2022-12-18T01:03:27.845Z,-2.35
2022-12-18T01:04:10.839Z,-2.44
2022-12-18T01:04:51.201Z,-2.42
2022-12-18T01:05:30.789Z,-2.35
2022-12-18T01:06:15.874Z,-2.31
2022-12-18T01:06:56.815Z,-2.24
2022-12-18T01:07:36.837Z,-2.28
2022-12-18T01:08:17.808Z,-2.28
2022-12-18T01:08:58.935Z,-2.26
2022-12-18T01:09:39.791Z,-2.22
2022-12-18T01:10:20.841Z,-2.19
2022-12-18T01:11:00.765Z,-2.10
2022-12-18T01:11:40.822Z,-2.14
2022-12-18T01:12:20.796Z,-2.16
2022-12-18T01:13:00.852Z,-2.14
2022-12-18T01:13:41.967Z,-2.16
2022-12-18T01:14:22.863Z,-2.09
2022-12-18T01:15:02.794Z,-2.27
2022-12-18T01:15:42.855Z,-2.18
2022-12-18T01:16:24.820Z,-2.19
2022-12-18T01:17:04.931Z,-2.22
2022-12-18T01:17:45.771Z,-2.14
2022-12-18T01:18:25.838Z,-2.18
2022-12-18T01:19:05.798Z,-2.21
2022-12-18T01:19:46.863Z,-2.32
2022-12-18T01:20:27.790Z,-2.37
2022-12-18T01:21:07.842Z,-2.44
2022-12-18T01:21:47.802Z,-2.32
2022-12-18T01:22:27.822Z,-2.26
2022-12-18T01:23:08.803Z,-2.21
2022-12-18T01:23:48.864Z,-2.20
2022-12-18T01:24:28.800Z,-2.18
2022-12-18T01:25:09.814Z,-2.33
2022-12-18T01:25:49.760Z,-2.24
2022-12-18T01:26:30.855Z,-2.26
2022-12-18T01:27:10.730Z,-2.26
2022-12-18T01:27:50.979Z,-2.38
2022-12-18T01:28:37.756Z,-2.34
2022-12-18T01:29:11.890Z,-2.33
2022-12-18T01:29:51.770Z,-2.34
2022-12-18T01:30:31.804Z,-2.31
2022-12-18T01:31:26.792Z,-2.32
2022-12-18T01:32:07.824Z,-2.32
2022-12-18T01:32:47.744Z,-2.30
2022-12-18T01:33:27.780Z,-2.28
2022-12-18T01:34:09.756Z,-2.32
2022-12-18T01:34:49.772Z,-2.47
2022-12-18T01:35:30.774Z,-2.46
2022-12-18T01:36:10.856Z,-2.38
2022-12-18T01:36:51.756Z,-2.43
2022-12-18T01:37:31.988Z,-2.55
2022-12-18T01:38:12.737Z,-2.49
2022-12-18T01:38:54.177Z,-2.47
2022-12-18T01:39:34.751Z,-2.54
2022-12-18T01:40:15.841Z,-2.56
2022-12-18T01:40:55.779Z,-2.66
2022-12-18T01:41:57.463Z,-2.47
2022-12-18T01:42:37.740Z,-2.54
2022-12-18T01:43:17.811Z,-2.52
2022-12-18T01:44:04.746Z,-2.50
2022-12-18T01:45:10.814Z,-2.52
2022-12-18T01:45:51.812Z,-2.60
2022-12-18T01:46:33.760Z,-2.79
2022-12-18T01:47:07.784Z,-2.86
2022-12-18T01:48:14.740Z,-2.79
2022-12-18T01:48:48.843Z,-2.90
2022-12-18T01:49:35.756Z,-2.80
2022-12-18T01:50:29.787Z,-2.80
2022-12-18T01:51:17.772Z,-2.86
2022-12-18T01:51:58.772Z,-2.97
2022-12-18T01:52:53.710Z,-2.99
2022-12-18T01:53:47.740Z,-2.98
2022-12-18T01:54:42.738Z,-2.91
2022-12-18T01:55:40.746Z,-2.96
2022-12-18T01:56:35.736Z,-2.86
2022-12-18T01:57:22.767Z,-2.85
2022-12-18T01:57:59.779Z,-2.91
2022-12-18T01:59:07.797Z,-3.01
2022-12-18T01:59:42.815Z,-3.02
2022-12-18T02:00:30.753Z,-2.83
2022-12-18T02:01:04.849Z,-2.79
2022-12-18T02:01:51.876Z,-2.75
2022-12-18T02:02:34.850Z,-2.68
2022-12-18T02:03:29.792Z,-2.67
2022-12-18T02:04:46.327Z,-2.62
2022-12-18T02:05:57.707Z,-2.53
2022-12-18T02:06:54.723Z,-2.53
2022-12-18T02:08:09.752Z,-2.58
2022-12-18T02:09:29.715Z,-2.61
2022-12-18T02:10:47.711Z,-2.62
2022-12-18T02:12:04.698Z,-2.66
2022-12-18T02:13:07.749Z,-2.64
2022-12-18T02:14:14.708Z,-2.54
2022-12-18T02:15:33.819Z,-2.48
2022-12-18T02:16:43.804Z,-2.57
2022-12-18T02:17:30.749Z,-2.50
2022-12-18T02:18:19.723Z,-2.55
2022-12-18T02:19:06.911Z,-2.46
2022-12-18T02:20:07.734Z,-2.51
2022-12-18T02:20:56.862Z,-2.61
2022-12-18T02:21:45.707Z,-2.54
2022-12-18T02:22:51.825Z,-2.56
2022-12-18T02:24:08.734Z,-2.74
2022-12-18T02:25:20.748Z,-2.63
2022-12-18T02:26:08.726Z,-2.69
2022-12-18T02:26:56.741Z,-2.64
2022-12-18T02:27:38.677Z,-2.63
2022-12-18T02:28:21.819Z,-2.62
2022-12-18T02:29:08.760Z,-2.65
2022-12-18T02:30:03.763Z,-2.65
2022-12-18T02:30:45.729Z,-2.60
2022-12-18T02:31:32.766Z,-2.72
2022-12-18T02:32:18.663Z,-2.61
2022-12-18T02:33:00.726Z,-2.69
2022-12-18T02:33:42.023Z,-2.63
2022-12-18T02:34:23.714Z,-2.54
2022-12-18T02:34:58.742Z,-2.56
2022-12-18T02:35:46.670Z,-2.61
2022-12-18T02:36:21.719Z,-2.55
2022-12-18T02:37:11.659Z,-2.58
2022-12-18T02:37:46.703Z,-2.62
2022-12-18T02:38:33.646Z,-2.60
2022-12-18T02:39:09.710Z,-2.77
2022-12-18T02:39:52.712Z,-2.72
2022-12-18T02:40:34.711Z,-2.72
2022-12-18T02:41:15.659Z,-2.69
2022-12-18T02:41:55.721Z,-2.76
2022-12-18T02:42:35.653Z,-2.79
2022-12-18T02:43:30.652Z,-2.76
2022-12-18T02:44:27.653Z,-2.70
2022-12-18T02:45:15.717Z,-2.65
2022-12-18T02:46:00.784Z,-2.80
2022-12-18T02:46:54.662Z,-2.74
2022-12-18T02:47:34.853Z,-2.69
2022-12-18T02:48:21.657Z,-2.65
2022-12-18T02:48:55.697Z,-2.72
2022-12-18T02:50:15.670Z,-2.62
2022-12-18T02:51:20.708Z,-2.60
2022-12-18T02:52:18.839Z,-2.59
2022-12-18T02:53:12.714Z,-2.65
2022-12-18T02:54:08.664Z,-2.61
2022-12-18T02:55:22.715Z,-2.74
2022-12-18T02:56:34.643Z,-2.83
2022-12-18T02:57:55.633Z,-2.84
2022-12-18T02:59:21.655Z,-2.95
2022-12-18T03:00:29.681Z,-2.99
2022-12-18T03:01:40.797Z,-2.88
2022-12-18T03:02:49.762Z,-2.97
2022-12-18T03:03:55.634Z,-3.00
2022-12-18T03:05:04.661Z,-2.86
2022-12-18T03:06:17.671Z,-2.87
2022-12-18T03:06:59.692Z,-2.99
2022-12-18T03:07:59.649Z,-2.96
2022-12-18T03:08:36.758Z,-2.90
2022-12-18T03:09:31.614Z,-3.07
2022-12-18T03:10:06.679Z,-2.92
2022-12-18T03:11:01.609Z,-2.92
2022-12-18T03:12:05.664Z,-2.89
2022-12-18T03:13:06.638Z,-2.98
2022-12-18T03:14:08.615Z,-3.05
2022-12-18T03:15:12.130Z,-2.96
2022-12-18T03:16:10.632Z,-2.85
2022-12-18T03:17:08.644Z,-3.03
2022-12-18T03:18:17.672Z,-3.08
2022-12-18T03:19:18.719Z,-2.92
2022-12-18T03:20:19.624Z,-2.84
2022-12-18T03:21:18.619Z,-2.88
2022-12-18T03:22:16.845Z,-2.98
2022-12-18T03:23:21.476Z,-2.70
2022-12-18T03:24:21.606Z,-2.83
2022-12-18T03:25:19.627Z,-3.01
2022-12-18T03:26:18.606Z,-2.96
2022-12-18T03:27:16.640Z,-2.85
2022-12-18T03:28:13.603Z,-2.86
2022-12-18T03:29:15.610Z,-2.94
2022-12-18T03:30:23.592Z,-2.99
2022-12-18T03:31:19.630Z,-2.94
2022-12-18T03:32:20.636Z,-2.92
2022-12-18T03:33:26.608Z,-2.98
2022-12-18T03:34:27.609Z,-3.05
2022-12-18T03:35:22.594Z,-2.93
2022-12-18T03:36:16.584Z,-2.85
2022-12-18T03:37:10.590Z,-2.72
2022-12-18T03:37:50.653Z,-2.83
2022-12-18T03:38:30.648Z,-2.98
2022-12-18T03:39:10.593Z,-3.16
2022-12-18T03:39:50.639Z,-3.13
2022-12-18T03:40:50.614Z,-3.14
2022-12-18T03:42:26.627Z,-3.01
2022-12-18T03:43:41.958Z,-3.25
2022-12-18T03:45:32.615Z,-3.24
2022-12-18T03:46:42.590Z,-3.34
2022-12-18T03:48:04.592Z,-3.16
2022-12-18T03:49:02.604Z,-3.12
2022-12-18T03:50:12.493Z,-3.16
2022-12-18T03:51:14.594Z,-3.18
2022-12-18T03:52:25.594Z,-3.12
2022-12-18T03:53:52.591Z,-3.01
2022-12-18T03:54:32.587Z,-3.07
2022-12-18T03:55:14.657Z,-3.10
2022-12-18T03:55:55.567Z,-3.17
2022-12-18T03:56:39.605Z,-3.16
2022-12-18T03:57:25.578Z,-3.21
2022-12-18T03:58:07.631Z,-3.15
2022-12-18T03:58:48.577Z,-3.26
2022-12-18T03:59:29.730Z,-3.10
2022-12-18T04:00:19.642Z,-3.00
2022-12-18T04:01:04.620Z,-2.99
2022-12-18T04:01:52.656Z,-3.01
2022-12-18T04:02:32.766Z,-2.92
2022-12-18T04:03:13.598Z,-2.89
2022-12-18T04:03:55.686Z,-3.02
2022-12-18T04:04:36.578Z,-2.95
2022-12-18T04:05:17.629Z,-3.00
2022-12-18T04:05:59.587Z,-3.01
2022-12-18T04:06:39.633Z,-3.12
2022-12-18T04:07:21.556Z,-3.07
2022-12-18T04:08:02.612Z,-3.18
2022-12-18T04:08:43.557Z,-3.21
2022-12-18T04:09:23.584Z,-3.20
2022-12-18T04:10:06.578Z,-3.19
2022-12-18T04:10:46.631Z,-3.07
2022-12-18T04:11:26.602Z,-3.09
2022-12-18T04:12:06.948Z,-3.08
2022-12-18T04:12:46.547Z,-3.01
2022-12-18T04:13:36.878Z,-3.07
2022-12-18T04:14:18.721Z,-3.08
2022-12-18T04:14:59.631Z,-3.10
2022-12-18T04:15:42.608Z,-2.99
2022-12-18T04:16:22.583Z,-3.01
2022-12-18T04:17:02.581Z,-2.95
2022-12-18T04:17:42.591Z,-3.03
2022-12-18T04:18:22.598Z,-3.09
2022-12-18T04:19:02.600Z,-2.90
2022-12-18T04:19:43.546Z,-2.98
2022-12-18T04:20:24.571Z,-2.85
2022-12-18T04:21:04.534Z,-3.15
2022-12-18T04:21:44.566Z,-2.96
2022-12-18T04:22:25.539Z,-2.91
2022-12-18T04:23:05.638Z,-2.82
2022-12-18T04:23:45.549Z,-2.75
2022-12-18T04:24:25.638Z,-2.82
2022-12-18T04:25:05.542Z,-2.72
2022-12-18T04:25:45.627Z,-2.90
2022-12-18T04:26:25.536Z,-2.79
2022-12-18T04:27:05.585Z,-2.71
2022-12-18T04:27:46.556Z,-2.70
2022-12-18T04:28:26.576Z,-2.74
2022-12-18T04:29:07.513Z,-2.84
2022-12-18T04:29:47.600Z,-2.81
2022-12-18T04:30:27.549Z,-2.85
2022-12-18T04:31:07.656Z,-2.69
2022-12-18T04:31:47.525Z,-2.70
2022-12-18T04:32:27.624Z,-2.87
2022-12-18T04:33:07.544Z,-2.74
2022-12-18T04:33:47.588Z,-2.69
2022-12-18T04:34:28.520Z,-2.68
2022-12-18T04:35:11.422Z,-2.85
2022-12-18T04:35:51.512Z,-2.79
2022-12-18T04:36:45.548Z,-2.78
2022-12-18T04:37:39.522Z,-2.78
2022-12-18T04:38:26.560Z,-2.81
2022-12-18T04:39:00.595Z,-2.81
2022-12-18T04:39:47.548Z,-2.78
2022-12-18T04:40:21.554Z,-2.79
2022-12-18T04:41:08.519Z,-2.76
2022-12-18T04:41:42.567Z,-2.63
2022-12-18T04:42:29.513Z,-2.75
2022-12-18T04:43:03.651Z,-2.86
2022-12-18T04:43:50.539Z,-2.75
2022-12-18T04:44:24.567Z,-2.82
2022-12-18T04:45:12.515Z,-2.89
2022-12-18T04:45:46.551Z,-2.83
2022-12-18T04:46:34.578Z,-2.79
2022-12-18T04:47:08.655Z,-2.84
2022-12-18T04:47:55.508Z,-2.78
2022-12-18T04:48:29.547Z,-2.77
2022-12-18T04:49:09.540Z,-2.88
2022-12-18T04:49:49.571Z,-2.88
2022-12-18T04:50:29.525Z,-2.97
2022-12-18T04:51:10.623Z,-2.81
2022-12-18T04:51:50.531Z,-2.70
2022-12-18T04:52:33.332Z,-2.77
2022-12-18T04:53:13.529Z,-2.88
2022-12-18T04:53:53.568Z,-2.95
2022-12-18T04:54:33.515Z,-2.94
2022-12-18T04:55:14.537Z,-2.98
2022-12-18T04:55:54.507Z,-2.83
2022-12-18T04:56:34.543Z,-3.04
2022-12-18T04:57:15.502Z,-3.05
2022-12-18T04:57:55.617Z,-3.11
2022-12-18T04:58:35.517Z,-3.01
2022-12-18T04:59:15.540Z,-3.18
2022-12-18T04:59:55.516Z,-3.23
2022-12-18T05:00:35.536Z,-3.15
2022-12-18T05:01:16.594Z,-3.40
2022-12-18T05:01:57.623Z,-3.23
2022-12-18T05:02:37.636Z,-3.12
2022-12-18T05:03:17.622Z,-3.18
2022-12-18T05:03:59.540Z,-3.32
2022-12-18T05:04:39.556Z,-3.36
2022-12-18T05:05:19.555Z,-3.26
2022-12-18T05:05:59.536Z,-3.32
2022-12-18T05:06:40.500Z,-3.43
2022-12-18T05:07:20.523Z,-3.55
2022-12-18T05:08:00.495Z,-3.42
2022-12-18T05:08:40.569Z,-3.47
2022-12-18T05:09:21.495Z,-3.62
2022-12-18T05:10:01.528Z,-3.57
2022-12-18T05:10:41.508Z,-3.54
2022-12-18T05:11:22.528Z,-3.66
2022-12-18T05:12:02.494Z,-3.58
2022-12-18T05:12:58.947Z,-3.48
2022-12-18T05:13:41.699Z,-3.44
2022-12-18T05:14:22.510Z,-3.45
2022-12-18T05:15:02.463Z,-3.53
2022-12-18T05:15:49.575Z,-3.50
2022-12-18T05:16:43.487Z,-3.41
2022-12-18T05:17:38.479Z,-3.43
2022-12-18T05:18:32.483Z,-3.41
2022-12-18T05:19:26.487Z,-3.63
2022-12-18T05:20:21.469Z,-3.56
2022-12-18T05:21:08.497Z,-3.49
2022-12-18T05:21:42.525Z,-3.39
2022-12-18T05:22:29.492Z,-3.32
2022-12-18T05:23:03.535Z,-3.41
2022-12-18T05:23:50.476Z,-3.33
2022-12-18T05:24:24.504Z,-3.35
2022-12-18T05:25:12.461Z,-3.25
2022-12-18T05:25:46.529Z,-3.24
2022-12-18T05:26:33.511Z,-3.15
2022-12-18T05:27:07.506Z,-3.10
2022-12-18T05:27:55.448Z,-3.18
2022-12-18T05:28:30.523Z,-3.08
2022-12-18T05:29:19.472Z,-3.11
2022-12-18T05:29:53.500Z,-3.14
2022-12-18T05:30:40.482Z,-3.25
2022-12-18T05:31:14.553Z,-3.15
2022-12-18T05:31:54.568Z,-3.13
2022-12-18T05:32:34.537Z,-3.14
2022-12-18T05:33:14.450Z,-3.24
2022-12-18T05:33:55.001Z,-3.14
2022-12-18T05:34:35.455Z,-3.10
2022-12-18T05:35:17.529Z,-3.19
2022-12-18T05:36:02.464Z,-3.26
2022-12-18T05:36:42.524Z,-3.44
2022-12-18T05:37:23.489Z,-3.35
2022-12-18T05:38:03.602Z,-3.31
2022-12-18T05:38:46.453Z,-3.26
2022-12-18T05:39:26.528Z,-3.26
2022-12-18T05:40:06.442Z,-3.22
2022-12-18T05:40:50.637Z,-3.18
2022-12-18T05:41:30.472Z,-3.19
2022-12-18T05:42:10.755Z,-3.13
2022-12-18T05:42:51.467Z,-3.03
2022-12-18T05:43:33.508Z,-3.12
2022-12-18T05:44:13.455Z,-3.13
2022-12-18T05:44:53.498Z,-3.01
2022-12-18T05:45:34.474Z,-3.12
2022-12-18T05:46:19.649Z,-3.15
2022-12-18T05:46:59.485Z,-3.23
2022-12-18T05:47:40.491Z,-3.17
2022-12-18T05:48:20.466Z,-3.30
2022-12-18T05:49:00.511Z,-3.19
2022-12-18T05:49:40.446Z,-3.05
2022-12-18T05:50:20.527Z,-3.06
2022-12-18T05:51:01.448Z,-3.11
2022-12-18T05:51:41.576Z,-3.04
2022-12-18T05:52:23.448Z,-3.06
2022-12-18T05:53:03.462Z,-3.12
2022-12-18T05:53:45.462Z,-3.07
2022-12-18T05:54:25.555Z,-3.07
2022-12-18T05:55:06.448Z,-3.12
2022-12-18T05:55:48.497Z,-3.20
2022-12-18T05:56:30.460Z,-3.22
2022-12-18T05:57:11.488Z,-3.19
2022-12-18T05:57:51.425Z,-3.13
2022-12-18T05:58:31.517Z,-3.14
2022-12-18T05:59:11.437Z,-3.19
2022-12-18T05:59:51.715Z,-3.26
2022-12-18T06:00:31.426Z,-3.37
2022-12-18T06:01:19.547Z,-3.26
2022-12-18T06:02:00.487Z,-3.15
2022-12-18T06:02:40.660Z,-3.19
2022-12-18T06:03:21.558Z,-3.18
2022-12-18T06:04:02.539Z,-3.20
2022-12-18T06:04:43.448Z,-3.15
2022-12-18T06:05:23.475Z,-3.09
2022-12-18T06:06:04.460Z,-3.24
2022-12-18T06:06:45.636Z,-3.20
2022-12-18T06:07:25.440Z,-3.25
2022-12-18T06:08:05.467Z,-3.17
2022-12-18T06:08:46.680Z,-3.27
2022-12-18T06:09:41.435Z,-3.24
2022-12-18T06:10:21.412Z,-3.27
2022-12-18T06:11:02.503Z,-3.27
2022-12-18T06:11:46.408Z,-3.33
2022-12-18T06:12:26.528Z,-3.34
2022-12-18T06:13:07.404Z,-3.29
2022-12-18T06:13:47.637Z,-3.36
2022-12-18T06:14:27.406Z,-3.38
2022-12-18T06:15:08.443Z,-3.31
2022-12-18T06:15:44.459Z,-3.30
2022-12-18T06:16:31.446Z,-3.54
2022-12-18T06:17:05.445Z,-3.34
2022-12-18T06:17:52.415Z,-3.52
2022-12-18T06:18:26.492Z,-3.43
2022-12-18T06:19:13.401Z,-3.45
2022-12-18T06:19:47.554Z,-3.51
2022-12-18T06:20:33.221Z,-3.47
2022-12-18T06:21:13.482Z,-3.56
2022-12-18T06:21:54.396Z,-3.64
2022-12-18T06:22:35.812Z,-3.41
2022-12-18T06:23:16.413Z,-3.53
2022-12-18T06:23:56.479Z,-3.66
2022-12-18T06:24:37.389Z,-3.73
2022-12-18T06:25:17.507Z,-3.72
2022-12-18T06:25:57.400Z,-3.60
2022-12-18T06:26:37.428Z,-3.44
2022-12-18T06:27:18.422Z,-3.57
2022-12-18T06:27:58.445Z,-3.43
2022-12-18T06:28:39.399Z,-3.51
2022-12-18T06:29:19.439Z,-3.64
2022-12-18T06:30:00.402Z,-3.58
2022-12-18T06:30:40.452Z,-3.62
2022-12-18T06:31:20.429Z,-3.64
2022-12-18T06:32:00.493Z,-3.61
2022-12-18T06:32:40.384Z,-3.61
2022-12-18T06:33:20.425Z,-3.60
2022-12-18T06:34:01.495Z,-3.61
2022-12-18T06:34:45.428Z,-3.72
2022-12-18T06:35:25.392Z,-3.78
2022-12-18T06:36:12.502Z,-3.61
2022-12-18T06:36:52.414Z,-3.61
2022-12-18T06:37:32.503Z,-3.59
2022-12-18T06:38:13.380Z,-3.57
2022-12-18T06:38:53.437Z,-3.51
2022-12-18T06:39:36.387Z,-3.53
2022-12-18T06:40:16.500Z,-3.56
2022-12-18T06:40:56.370Z,-3.63
2022-12-18T06:41:36.413Z,-3.57
2022-12-18T06:42:17.411Z,-3.49
2022-12-18T06:42:57.399Z,-3.43
2022-12-18T06:43:37.705Z,-3.42
2022-12-18T06:44:18.432Z,-3.43
2022-12-18T06:44:58.369Z,-3.41
2022-12-18T06:45:38.484Z,-3.51
2022-12-18T06:46:19.417Z,-3.43
2022-12-18T06:46:59.427Z,-3.43
2022-12-18T06:47:39.411Z,-3.47
2022-12-18T06:48:19.440Z,-3.59
2022-12-18T06:49:00.373Z,-3.53
2022-12-18T06:49:40.406Z,-3.50
2022-12-18T06:50:21.372Z,-3.57
2022-12-18T06:51:01.399Z,-3.61
2022-12-18T06:51:42.373Z,-3.50
2022-12-18T06:52:23.399Z,-3.44
2022-12-18T06:53:03.396Z,-3.45
2022-12-18T06:53:44.421Z,-3.47
2022-12-18T06:54:24.374Z,-3.49
2022-12-18T06:55:05.432Z,-3.54
2022-12-18T06:55:45.360Z,-3.51
2022-12-18T06:56:25.414Z,-3.37
2022-12-18T06:57:05.338Z,-3.41
2022-12-18T06:57:45.400Z,-3.39
2022-12-18T06:58:25.382Z,-3.49
2022-12-18T06:59:05.401Z,-3.33
2022-12-18T06:59:45.368Z,-3.37
2022-12-18T07:00:25.422Z,-3.33
2022-12-18T07:01:16.484Z,-3.49
2022-12-18T07:01:56.570Z,-3.57
2022-12-18T07:02:36.480Z,-3.44
2022-12-18T07:03:16.412Z,-3.49
2022-12-18T07:04:02.411Z,-3.49
2022-12-18T07:04:43.407Z,-3.61
2022-12-18T07:05:23.328Z,-3.48
2022-12-18T07:06:03.431Z,-3.42
2022-12-18T07:06:43.368Z,-3.43
2022-12-18T07:07:37.351Z,-3.47
2022-12-18T07:08:31.345Z,-3.45
2022-12-18T07:09:18.385Z,-3.54
2022-12-18T07:09:52.379Z,-3.43
2022-12-18T07:10:43.247Z,-3.51
2022-12-18T07:11:20.374Z,-3.65
2022-12-18T07:12:07.341Z,-3.57
2022-12-18T07:12:42.049Z,-3.50
2022-12-18T07:13:30.375Z,-3.63
2022-12-18T07:14:07.415Z,-3.51
2022-12-18T07:14:47.410Z,-3.41
2022-12-18T07:15:27.399Z,-3.50
2022-12-18T07:16:24.815Z,-3.34
2022-12-18T07:17:05.520Z,-3.46
2022-12-18T07:17:46.323Z,-3.48
2022-12-18T07:18:26.375Z,-3.57
2022-12-18T07:19:06.348Z,-3.52
2022-12-18T07:19:46.387Z,-3.57
2022-12-18T07:20:26.352Z,-3.49
2022-12-18T07:21:11.423Z,-3.38
2022-12-18T07:21:51.333Z,-3.29
2022-12-18T07:22:33.384Z,-3.21
2022-12-18T07:23:13.341Z,-3.27
2022-12-18T07:23:53.350Z,-3.31
2022-12-18T07:24:33.307Z,-3.42
2022-12-18T07:25:14.359Z,-3.62
2022-12-18T07:25:54.354Z,-3.64
2022-12-18T07:26:34.397Z,-3.55
2022-12-18T07:27:15.338Z,-3.59
2022-12-18T07:27:55.379Z,-3.61
2022-12-18T07:28:35.328Z,-3.55
2022-12-18T07:29:15.372Z,-3.50
2022-12-18T07:29:55.316Z,-3.59
2022-12-18T07:30:35.368Z,-3.50
2022-12-18T07:31:25.461Z,-3.52
2022-12-18T07:32:06.513Z,-3.53
2022-12-18T07:32:46.338Z,-3.59
2022-12-18T07:33:26.720Z,-3.52
2022-12-18T07:34:07.325Z,-3.45
2022-12-18T07:34:47.373Z,-3.48
2022-12-18T07:35:27.304Z,-3.40
2022-12-18T07:36:11.508Z,-3.43
2022-12-18T07:36:52.334Z,-3.41
2022-12-18T07:37:32.367Z,-3.32
2022-12-18T07:38:12.296Z,-3.23
2022-12-18T07:38:55.652Z,-3.24
2022-12-18T07:39:35.318Z,-3.19
2022-12-18T07:40:16.374Z,-3.23
2022-12-18T07:40:56.311Z,-3.10
2022-12-18T07:41:36.351Z,-3.15
2022-12-18T07:42:35.322Z,-3.19
2022-12-18T07:43:15.398Z,-3.11
2022-12-18T07:43:56.286Z,-3.08
2022-12-18T07:44:36.383Z,-3.07
2022-12-18T07:45:17.322Z,-3.09
2022-12-18T07:45:57.391Z,-3.30
2022-12-18T07:46:37.325Z,-3.10
2022-12-18T07:47:17.427Z,-3.29
2022-12-18T07:47:57.326Z,-3.30
2022-12-18T07:48:37.358Z,-3.24
2022-12-18T07:49:17.309Z,-3.13
2022-12-18T07:49:57.447Z,-3.22
2022-12-18T07:50:38.287Z,-3.03
2022-12-18T07:51:18.529Z,-3.08
2022-12-18T07:51:58.298Z,-3.06
2022-12-18T07:52:38.361Z,-3.13
2022-12-18T07:53:18.329Z,-3.02
2022-12-18T07:53:58.348Z,-2.92
2022-12-18T07:54:38.295Z,-2.97
2022-12-18T07:55:18.425Z,-2.91
2022-12-18T07:57:07.457Z,-3.01
2022-12-18T07:57:57.609Z,-2.88
2022-12-18T07:58:40.325Z,-2.82
2022-12-18T07:59:14.379Z,-2.76
2022-12-18T08:00:01.295Z,-2.86
2022-12-18T08:00:35.327Z,-2.87
2022-12-18T08:01:22.403Z,-2.80
2022-12-18T08:01:56.494Z,-2.80
2022-12-18T08:02:43.355Z,-2.87
2022-12-18T08:03:17.369Z,-2.99
2022-12-18T08:04:06.289Z,-3.05
2022-12-18T08:04:40.331Z,-2.95
2022-12-18T08:05:28.303Z,-3.02
2022-12-18T08:06:10.352Z,-3.05
2022-12-18T08:06:57.280Z,-3.09
2022-12-18T08:07:31.332Z,-3.07
2022-12-18T08:08:19.276Z,-3.07
2022-12-18T08:08:53.484Z,-3.10
2022-12-18T08:09:34.282Z,-3.09
2022-12-18T08:10:15.372Z,-3.18
2022-12-18T08:10:55.313Z,-3.03
2022-12-18T08:11:36.369Z,-2.98
2022-12-18T08:12:16.277Z,-3.03
2022-12-18T08:13:04.578Z,-2.96
2022-12-18T08:13:46.295Z,-2.90
2022-12-18T08:14:26.328Z,-2.89
2022-12-18T08:15:06.344Z,-2.80
2022-12-18T08:15:46.327Z,-2.76
2022-12-18T08:16:28.343Z,-2.76
2022-12-18T08:17:08.304Z,-2.88
2022-12-18T08:17:48.270Z,-2.81
2022-12-18T08:18:28.374Z,-2.82
2022-12-18T08:19:08.266Z,-2.81
2022-12-18T08:19:48.328Z,-2.75
2022-12-18T08:20:28.284Z,-2.93
2022-12-18T08:21:19.038Z,-2.90
2022-12-18T08:22:00.264Z,-3.00
2022-12-18T08:22:42.292Z,-2.96
2022-12-18T08:23:22.249Z,-2.99
2022-12-18T08:24:05.355Z,-2.80
2022-12-18T08:24:45.267Z,-2.75
2022-12-18T08:25:25.306Z,-2.63
2022-12-18T08:26:06.269Z,-2.80
2022-12-18T08:27:06.815Z,-2.76
2022-12-18T08:27:47.251Z,-2.80
2022-12-18T08:28:27.307Z,-2.90
2022-12-18T08:29:08.250Z,-2.78
2022-12-18T08:29:48.288Z,-2.82
2022-12-18T08:30:29.360Z,-2.84
2022-12-18T08:31:16.336Z,-2.89
2022-12-18T08:32:10.346Z,-2.74
2022-12-18T08:33:06.259Z,-2.66
2022-12-18T08:34:06.267Z,-2.60
2022-12-18T08:35:00.249Z,-2.61
2022-12-18T08:35:54.235Z,-2.60
2022-12-18T08:36:41.261Z,-2.76
2022-12-18T08:37:15.336Z,-2.80
2022-12-18T08:38:02.334Z,-2.86
2022-12-18T08:38:36.667Z,-2.79
2022-12-18T08:39:23.316Z,-2.76
2022-12-18T08:39:57.330Z,-2.81
2022-12-18T08:40:44.235Z,-2.73
2022-12-18T08:41:23.370Z,-2.72
2022-12-18T08:42:22.263Z,-2.95
2022-12-18T08:43:20.658Z,-2.94
2022-12-18T08:44:19.264Z,-2.85
2022-12-18T08:44:59.514Z,-3.01
2022-12-18T08:45:42.272Z,-2.90
2022-12-18T08:46:22.359Z,-2.89
2022-12-18T08:47:02.233Z,-2.90
2022-12-18T08:47:42.234Z,-2.83
2022-12-18T08:48:21.850Z,-2.98
2022-12-18T08:49:09.234Z,-2.97
2022-12-18T08:49:43.256Z,-2.86
2022-12-18T08:50:30.239Z,-2.81
2022-12-18T08:51:05.357Z,-3.04
2022-12-18T08:51:52.236Z,-2.88
2022-12-18T08:52:26.365Z,-2.93
2022-12-18T08:53:07.298Z,-3.00
2022-12-18T08:53:47.247Z,-3.01
2022-12-18T08:54:28.218Z,-2.98
2022-12-18T08:55:08.247Z,-3.03
2022-12-18T08:55:50.496Z,-2.92
2022-12-18T08:56:31.271Z,-2.95
2022-12-18T08:57:11.223Z,-2.85
2022-12-18T08:57:55.285Z,-2.86
2022-12-18T08:58:35.257Z,-2.83
2022-12-18T08:59:19.749Z,-2.80
2022-12-18T09:00:00.233Z,-2.85
2022-12-18T09:00:40.299Z,-2.79
2022-12-18T09:01:21.294Z,-2.85
2022-12-18T09:02:02.420Z,-2.95
2022-12-18T09:02:42.284Z,-2.83
2022-12-18T09:03:25.302Z,-2.79
2022-12-18T09:04:05.242Z,-2.83
2022-12-18T09:04:52.409Z,-2.82
2022-12-18T09:05:36.207Z,-2.87
2022-12-18T09:06:16.714Z,-2.92
2022-12-18T09:06:57.217Z,-2.81
2022-12-18T09:07:37.427Z,-2.82
2022-12-18T09:08:17.193Z,-2.75
2022-12-18T09:08:57.263Z,-2.73
2022-12-18T09:09:37.248Z,-2.67
2022-12-18T09:10:17.325Z,-2.60
2022-12-18T09:10:58.206Z,-2.68
2022-12-18T09:11:39.285Z,-2.67
2022-12-18T09:12:20.217Z,-2.66
2022-12-18T09:13:00.279Z,-2.70
2022-12-18T09:13:40.532Z,-2.63
2022-12-18T09:14:21.258Z,-2.59
2022-12-18T09:15:01.211Z,-2.49
2022-12-18T09:15:41.213Z,-2.58
2022-12-18T09:16:21.221Z,-2.49
2022-12-18T09:17:01.321Z,-2.55
2022-12-18T09:17:41.208Z,-2.36
2022-12-18T09:18:23.290Z,-2.49
2022-12-18T09:19:07.206Z,-2.49
2022-12-18T09:19:47.292Z,-2.50
2022-12-18T09:20:27.243Z,-2.51
2022-12-18T09:21:07.275Z,-2.43
2022-12-18T09:21:48.654Z,-2.33
2022-12-18T09:22:29.270Z,-2.39
2022-12-18T09:23:10.215Z,-2.29
2022-12-18T09:23:51.252Z,-2.36
2022-12-18T09:24:31.202Z,-2.26
2022-12-18T09:25:12.327Z,-2.26
2022-12-18T09:25:53.217Z,-2.25
2022-12-18T09:26:34.253Z,-2.18
2022-12-18T09:27:14.181Z,-2.08
2022-12-18T09:27:55.239Z,-2.05
2022-12-18T09:28:36.177Z,-2.03
2022-12-18T09:29:16.379Z,-2.18
2022-12-18T09:29:59.199Z,-2.29
2022-12-18T09:30:39.303Z,-2.18
2022-12-18T09:31:21.236Z,-2.07
2022-12-18T09:32:01.274Z,-2.10
2022-12-18T09:32:42.187Z,-1.89
2022-12-18T09:33:23.288Z,-2.01
2022-12-18T09:34:04.185Z,-1.87
2022-12-18T09:34:45.216Z,-2.06